Time;durP1;ratioP1;P1;durP2;ratioP2;P2;SDS_P1;SDS_P2;PMS_P1;PMS_P2;Temp;Humidity;BMP_temperature;BMP_pressure;BME280_temperature;BME280_humidity;BME280_pressure;Samples;Min_cycle;Max_cycle;Signal;HPM_P1;HPM_P2
2022/03/27 00:01:44;;;;;;;0.40;0.40;;;;;;;7.83;77.51;101548.41;5054572;28;20447;-48
2022/03/27 00:04:11;;;;;;;0.50;0.50;;;;;;;7.87;77.40;101552.81;5041630;28;20446;-48
2022/03/27 00:06:37;;;;;;;0.30;0.20;;;;;;;7.37;79.56;101542.91;5047041;28;20470;-47
2022/03/27 00:09:04;;;;;;;0.40;0.40;;;;;;;7.37;78.66;101542.03;5050789;28;20482;-47
2022/03/27 00:11:31;;;;;;;0.40;0.30;;;;;;;7.77;78.62;101550.13;5053396;28;20504;-47
2022/03/27 00:14:00;;;;;;;0.30;0.20;;;;;;;7.29;80.34;101542.00;5043166;28;20489;-47
2022/03/27 00:16:28;;;;;;;0.30;0.20;;;;;;;7.44;79.69;101541.19;5040973;28;20474;-48
2022/03/27 00:18:55;;;;;;;0.30;0.20;;;;;;;7.30;80.75;101538.47;5044097;28;20478;-47
2022/03/27 00:21:22;;;;;;;0.30;0.20;;;;;;;7.17;81.00;101543.69;5040998;28;20502;-48
2022/03/27 00:23:50;;;;;;;0.30;0.27;;;;;;;6.84;81.12;101539.94;5043432;28;20502;-48
2022/03/27 00:26:17;;;;;;;0.73;0.73;;;;;;;7.01;81.04;101540.09;5047633;28;20522;-48
2022/03/27 00:28:44;;;;;;;0.70;0.70;;;;;;;6.69;81.47;101543.38;5039002;28;20541;-47
2022/03/27 00:31:12;;;;;;;0.30;0.20;;;;;;;6.89;81.62;101534.72;5047927;28;20488;-47
2022/03/27 00:33:40;;;;;;;0.30;0.20;;;;;;;6.68;82.09;101540.72;5043306;28;20450;-47
2022/03/27 00:36:10;;;;;;;0.30;0.20;;;;;;;6.71;82.62;101546.03;5040842;28;20478;-47
2022/03/27 00:38:37;;;;;;;0.77;0.77;;;;;;;6.97;81.60;101543.56;5043850;28;20452;-47
2022/03/27 00:41:05;;;;;;;0.30;0.20;;;;;;;6.67;82.63;101539.84;5036760;28;20451;-48
2022/03/27 00:43:33;;;;;;;0.77;0.60;;;;;;;6.29;82.80;101539.50;5043856;28;20448;-47
2022/03/27 00:46:00;;;;;;;0.40;0.30;;;;;;;6.31;82.83;101536.91;5047434;28;20471;-47
2022/03/27 00:48:27;;;;;;;0.40;0.30;;;;;;;6.43;82.90;101537.00;5042334;28;20490;-47
2022/03/27 00:50:54;;;;;;;0.30;0.20;;;;;;;6.25;83.01;101529.81;5040935;28;20528;-49
2022/03/27 00:53:21;;;;;;;0.83;0.83;;;;;;;6.78;82.09;101539.94;5042913;28;20452;-49
2022/03/27 00:55:51;;;;;;;7.83;1.07;;;;;;;6.58;82.65;101536.22;5047378;28;20553;-49
2022/03/27 00:58:18;;;;;;;0.50;0.50;;;;;;;5.97;85.17;101539.22;5044450;28;20454;-49
2022/03/27 01:00:54;;;;;;;0.50;0.50;;;;;;;5.99;85.59;101534.84;5053539;28;20796;-50
2022/03/27 01:03:24;;;;;;;0.40;0.40;;;;;;;6.02;84.89;101537.50;5040103;28;20447;-49
2022/03/27 01:05:53;;;;;;;0.67;0.67;;;;;;;6.30;84.34;101528.09;5045960;28;20467;-49
2022/03/27 01:11:16;;;;;;;0.40;0.40;;;;;;;6.15;84.32;101533.22;5039106;28;20480;-49
2022/03/27 01:13:45;;;;;;;0.30;0.20;;;;;;;6.18;85.21;101533.28;5034613;28;20455;-49
2022/03/27 01:16:31;;;;;;;0.30;0.30;;;;;;;5.70;87.23;101531.84;5045903;28;20474;-49
2022/03/27 01:19:00;;;;;;;1.27;1.27;;;;;;;6.15;85.23;101520.03;5026830;28;20500;-49
2022/03/27 01:21:27;;;;;;;1.17;1.07;;;;;;;5.86;85.96;101524.97;5036176;28;20456;-49
2022/03/27 01:23:55;;;;;;;0.30;0.20;;;;;;;6.07;84.34;101519.97;5044396;28;20859;-49
2022/03/27 01:26:23;;;;;;;0.30;0.20;;;;;;;5.87;85.82;101516.19;5046818;28;20561;-49
2022/03/27 01:28:50;;;;;;;0.30;0.20;;;;;;;5.93;85.16;101521.59;5040769;28;20487;-50
2022/03/27 01:31:19;;;;;;;0.40;0.30;;;;;;;5.72;85.34;101521.31;5046043;28;20463;-50
2022/03/27 01:33:45;;;;;;;0.30;0.20;;;;;;;6.13;86.18;101505.94;5043506;28;20450;-49
2022/03/27 01:36:22;;;;;;;1.80;1.70;;;;;;;5.96;86.05;101510.19;5052417;22;20508;-53
2022/03/27 01:38:54;;;;;;;0.40;0.40;;;;;;;5.94;85.82;101507.53;5026027;28;20451;-53
2022/03/27 01:41:21;;;;;;;0.30;0.20;;;;;;;5.75;86.61;101509.03;5019876;28;20987;-52
2022/03/27 01:43:48;;;;;;;0.30;0.20;;;;;;;5.70;86.85;101523.06;5020519;28;20488;-52
2022/03/27 01:46:15;;;;;;;0.40;0.30;;;;;;;5.74;86.33;101517.81;5026278;28;20997;-52
2022/03/27 01:48:42;;;;;;;0.40;0.20;;;;;;;5.62;86.46;101510.69;5019606;28;20496;-53
2022/03/27 01:51:09;;;;;;;0.30;0.20;;;;;;;5.35;87.00;101518.28;5025721;28;20459;-53
2022/03/27 01:53:38;;;;;;;0.30;0.20;;;;;;;5.75;87.51;101510.78;5019350;28;20456;-51
2022/03/27 01:56:06;;;;;;;0.30;0.20;;;;;;;5.65;87.39;101513.34;5025767;28;20880;-52
2022/03/27 01:58:32;;;;;;;0.40;0.30;;;;;;;5.70;87.00;101501.94;5017090;28;20446;-53
2022/03/27 02:00:59;;;;;;;0.40;0.40;;;;;;;5.61;88.69;101511.53;5004044;28;20796;-52
2022/03/27 02:03:28;;;;;;;0.30;0.20;;;;;;;5.57;87.13;101514.13;5021088;28;20447;-53
2022/03/27 02:05:55;;;;;;;0.93;0.93;;;;;;;5.61;86.77;101510.63;5019734;28;20526;-52
2022/03/27 02:08:22;;;;;;;0.30;0.20;;;;;;;5.58;86.70;101505.34;5025712;28;20561;-52
2022/03/27 02:10:55;;;;;;;0.30;0.20;;;;;;;5.58;87.38;101513.25;5012764;28;20457;-53
2022/03/27 02:13:22;;;;;;;0.30;0.20;;;;;;;5.64;87.02;101511.59;5025725;28;20880;-53
2022/03/27 02:15:49;;;;;;;0.30;0.20;;;;;;;5.62;88.60;101513.31;5013225;28;20840;-52
2022/03/27 02:18:16;;;;;;;0.30;0.20;;;;;;;5.50;86.94;101514.94;5018002;28;20887;-53
2022/03/27 02:20:44;;;;;;;0.30;0.27;;;;;;;5.24;86.84;101510.22;5006028;28;20961;-53
2022/03/27 02:23:13;;;;;;;0.30;0.20;;;;;;;5.13;89.06;101511.81;5007395;28;20452;-52
2022/03/27 02:25:40;;;;;;;0.30;0.20;;;;;;;5.16;88.96;101516.25;5021087;28;20477;-53
2022/03/27 02:28:07;;;;;;;0.40;0.30;;;;;;;5.15;87.86;101510.09;5024952;28;20491;-53
2022/03/27 02:30:34;;;;;;;0.30;0.27;;;;;;;5.21;88.10;101509.31;5011457;28;20503;-52
2022/03/27 02:33:01;;;;;;;2.33;1.13;;;;;;;4.86;89.84;101514.97;5025546;28;20452;-52
2022/03/27 02:35:28;;;;;;;0.30;0.20;;;;;;;4.78;89.67;101516.59;5016526;28;20508;-52
2022/03/27 02:37:55;;;;;;;0.30;0.20;;;;;;;4.80;89.34;101509.63;5018417;28;20513;-53
2022/03/27 02:40:21;;;;;;;0.30;0.20;;;;;;;4.60;90.86;101508.41;5015543;28;20564;-52
2022/03/27 02:42:48;;;;;;;2.73;0.60;;;;;;;4.58;91.45;101512.78;5025006;28;20503;-52
2022/03/27 02:45:15;;;;;;;0.30;0.20;;;;;;;4.79;90.29;101505.19;5025628;28;20478;-53
2022/03/27 02:47:42;;;;;;;0.30;0.17;;;;;;;4.65;90.88;101509.34;5019681;28;20507;-51
2022/03/27 02:50:10;;;;;;;0.50;0.50;;;;;;;4.78;88.44;101500.78;5016030;28;20488;-51
2022/03/27 02:52:36;;;;;;;0.30;0.20;;;;;;;4.69;89.58;101508.56;5006163;28;20464;-52
2022/03/27 02:55:04;;;;;;;0.30;0.20;;;;;;;4.59;90.06;101504.91;5018131;28;20445;-53
2022/03/27 02:57:30;;;;;;;0.30;0.20;;;;;;;4.56;90.04;101504.84;5025157;28;20453;-52
2022/03/27 02:59:57;;;;;;;0.30;0.20;;;;;;;4.41;91.11;101508.13;5012533;28;20483;-52
2022/03/27 03:02:24;;;;;;;0.30;0.20;;;;;;;4.44;90.76;101504.66;5025574;28;20483;-52
2022/03/27 03:04:51;;;;;;;0.40;0.40;;;;;;;4.31;91.11;101510.59;5024758;28;20467;-52
2022/03/27 03:07:18;;;;;;;0.30;0.20;;;;;;;4.27;90.88;101507.03;5018481;28;20472;-52
2022/03/27 03:09:45;;;;;;;0.30;0.20;;;;;;;4.12;91.76;101514.66;5015085;28;20513;-53
2022/03/27 03:12:11;;;;;;;0.30;0.20;;;;;;;4.29;91.07;101509.69;5025836;28;20445;-53
2022/03/27 03:14:38;;;;;;;0.30;0.20;;;;;;;4.19;93.42;101507.75;5025441;28;20452;-51
2022/03/27 03:17:07;;;;;;;0.40;0.20;;;;;;;4.50;90.99;101503.84;5003453;28;20484;-53
2022/03/27 03:19:34;;;;;;;0.30;0.20;;;;;;;4.50;90.89;101517.91;5022892;28;20474;-53
2022/03/27 03:22:01;;;;;;;0.80;0.80;;;;;;;4.40;90.53;101519.53;5024504;28;20484;-53
2022/03/27 03:24:28;;;;;;;0.30;0.20;;;;;;;4.11;90.78;101515.50;5025404;28;20452;-54
2022/03/27 03:26:55;;;;;;;0.37;0.37;;;;;;;4.01;92.06;101513.59;5019509;28;20878;-53
2022/03/27 03:29:22;;;;;;;0.40;0.40;;;;;;;3.93;91.53;101515.19;5017388;28;20527;-54
2022/03/27 03:31:49;;;;;;;0.90;0.90;;;;;;;4.03;93.06;101519.75;5019386;28;20463;-53
2022/03/27 03:34:16;;;;;;;0.30;0.20;;;;;;;3.99;93.87;101513.56;5018009;28;20449;-53
2022/03/27 03:36:44;;;;;;;1.60;1.03;;;;;;;4.08;92.22;101518.97;5013901;28;20513;-53
2022/03/27 03:39:11;;;;;;;0.30;0.30;;;;;;;4.09;92.13;101525.09;5019234;28;20448;-53
2022/03/27 03:41:38;;;;;;;0.40;0.40;;;;;;;3.99;92.28;101513.56;5023343;28;20451;-52
2022/03/27 03:44:23;;;;;;;0.30;0.20;;;;;;;3.95;93.74;101514.34;5020039;28;20443;-53
2022/03/27 03:46:49;;;;;;;0.30;0.20;;;;;;;3.95;92.98;101521.34;5017468;28;20479;-53
2022/03/27 03:49:16;;;;;;;0.30;0.20;;;;;;;3.80;93.69;101514.94;5021457;28;20580;-53
2022/03/27 03:51:43;;;;;;;0.30;0.10;;;;;;;3.90;93.92;101520.38;5026431;28;20459;-53
2022/03/27 03:54:09;;;;;;;1.03;0.97;;;;;;;3.88;93.92;101520.38;5022076;28;20452;-53
2022/03/27 03:56:38;;;;;;;0.40;0.40;;;;;;;4.07;92.32;101530.34;5023644;28;20504;-54
2022/03/27 03:59:05;;;;;;;0.30;0.20;;;;;;;4.03;92.77;101519.75;5028237;28;20441;-54
2022/03/27 04:01:52;;;;;;;0.30;0.20;;;;;;;3.72;94.53;101531.47;5023485;28;20450;-54
2022/03/27 04:04:18;;;;;;;0.43;0.43;;;;;;;3.92;93.13;101519.56;5020169;28;20932;-54
2022/03/27 04:06:45;;;;;;;0.30;0.20;;;;;;;3.80;93.24;101516.69;5023798;28;20499;-53
2022/03/27 04:09:12;;;;;;;0.30;0.20;;;;;;;3.79;92.86;101518.44;5025989;28;20993;-54
2022/03/27 04:11:38;;;;;;;0.30;0.20;;;;;;;3.82;92.54;101520.22;5024958;28;20603;-54
2022/03/27 04:14:05;;;;;;;0.93;0.87;;;;;;;3.92;92.72;101516.03;5023846;28;20494;-54
2022/03/27 04:16:32;;;;;;;0.30;0.20;;;;;;;3.71;92.83;101513.91;5020710;28;21027;-54
2022/03/27 04:18:58;;;;;;;0.30;0.20;;;;;;;3.67;94.93;101515.56;5024003;28;21014;-54
2022/03/27 04:21:26;;;;;;;0.30;0.20;;;;;;;3.72;94.56;101513.94;5030071;28;20459;-53
2022/03/27 04:23:53;;;;;;;1.13;0.20;;;;;;;3.64;93.86;101517.25;5022596;28;20448;-52
2022/03/27 04:26:20;;;;;;;0.30;0.10;;;;;;;3.70;94.00;101515.66;5027705;28;20986;-52
2022/03/27 04:28:47;;;;;;;0.30;0.20;;;;;;;3.50;94.31;101519.63;5024157;28;20546;-51
2022/03/27 04:31:14;;;;;;;0.30;0.20;;;;;;;3.59;93.40;101518.94;5020259;28;20455;-53
2022/03/27 04:33:41;;;;;;;1.03;0.60;;;;;;;3.67;94.42;101518.19;5024583;28;20519;-53
2022/03/27 04:36:08;;;;;;;1.03;1.03;;;;;;;3.44;95.10;101512.50;5006031;28;20847;-52
2022/03/27 04:38:36;;;;;;;1.70;1.70;;;;;;;3.62;94.39;101509.34;5024144;28;20449;-53
2022/03/27 04:41:03;;;;;;;1.60;1.33;;;;;;;3.64;94.47;101510.25;5019318;28;20460;-53
2022/03/27 04:43:29;;;;;;;0.30;0.20;;;;;;;3.41;94.81;101519.44;5023312;28;20876;-51
2022/03/27 04:45:56;;;;;;;0.30;0.30;;;;;;;3.62;94.08;101517.25;5027250;28;20512;-53
2022/03/27 04:48:25;;;;;;;8.33;2.23;;;;;;;3.49;94.49;101520.47;5023055;28;20452;-53
2022/03/27 04:50:55;;;;;;;1.13;1.13;;;;;;;3.39;94.77;101516.78;5012396;28;20455;-53
2022/03/27 04:53:22;;;;;;;0.30;0.20;;;;;;;3.19;95.25;101524.25;5022796;28;20515;-52
2022/03/27 04:55:49;;;;;;;0.30;0.20;;;;;;;3.33;96.08;101521.91;5027180;28;20829;-53
2022/03/27 04:58:16;;;;;;;0.30;0.20;;;;;;;3.41;95.26;101522.06;5018824;28;21013;-52
2022/03/27 05:00:43;;;;;;;0.30;0.20;;;;;;;3.36;95.30;101527.22;5018090;28;20458;-53
2022/03/27 05:03:11;;;;;;;1.03;1.03;;;;;;;3.28;95.14;101524.41;5021668;28;20449;-53
2022/03/27 05:05:40;;;;;;;0.30;0.30;;;;;;;3.23;95.11;101528.72;5026467;28;20476;-53
2022/03/27 05:08:07;;;;;;;0.90;0.90;;;;;;;3.11;96.41;101535.44;5026791;28;20948;-53
2022/03/27 05:10:34;;;;;;;0.30;0.10;;;;;;;3.27;95.26;101530.53;5016038;28;20514;-52
2022/03/27 05:13:01;;;;;;;0.93;0.40;;;;;;;3.19;95.76;101532.13;5020443;28;20452;-52
2022/03/27 05:15:28;;;;;;;0.30;0.10;;;;;;;3.14;97.28;101531.13;5026857;28;20518;-52
2022/03/27 05:17:58;;;;;;;0.30;0.20;;;;;;;3.12;96.70;101530.22;5015523;28;20465;-52
2022/03/27 05:20:27;;;;;;;0.30;0.20;;;;;;;3.18;95.99;101534.72;5029241;28;20452;-53
2022/03/27 05:22:55;;;;;;;0.30;0.20;;;;;;;3.32;96.28;101528.03;5020058;28;20546;-52
2022/03/27 05:25:22;;;;;;;0.20;0.10;;;;;;;3.44;95.54;101535.28;5007839;28;20473;-53
2022/03/27 05:27:54;;;;;;;0.23;0.10;;;;;;;3.39;97.36;101529.91;5022018;28;20452;-52
2022/03/27 05:30:23;;;;;;;0.30;0.10;;;;;;;3.30;96.34;101528.84;5021596;28;20483;-53
2022/03/27 05:32:51;;;;;;;0.27;0.20;;;;;;;3.25;95.46;101526.09;5020067;28;20449;-52
2022/03/27 05:35:18;;;;;;;0.20;0.10;;;;;;;3.37;95.72;101528.09;5023436;28;20507;-53
2022/03/27 05:37:46;;;;;;;0.23;0.20;;;;;;;3.37;95.81;101528.09;5026645;28;20480;-52
2022/03/27 05:40:15;;;;;;;0.97;0.57;;;;;;;3.38;95.39;101529.88;5013494;28;20448;-54
2022/03/27 05:42:42;;;;;;;1.10;1.10;;;;;;;3.37;94.78;101539.50;5026609;28;20503;-53
2022/03/27 05:45:10;;;;;;;0.30;0.20;;;;;;;3.39;95.14;101537.78;5014191;28;20474;-52
2022/03/27 05:47:41;;;;;;;0.30;0.20;;;;;;;3.50;96.29;101541.53;5021547;28;20467;-53
2022/03/27 05:50:14;;;;;;;0.27;0.20;;;;;;;3.64;95.70;101540.91;5021433;28;20492;-52
2022/03/27 05:52:42;;;;;;;0.20;0.10;;;;;;;3.78;95.64;101545.59;5026189;28;20510;-54
2022/03/27 05:55:09;;;;;;;0.30;0.20;;;;;;;3.92;94.81;101545.84;5025533;28;20451;-52
2022/03/27 05:57:36;;;;;;;0.50;0.47;;;;;;;3.94;94.38;101549.38;5016392;28;20456;-54
2022/03/27 06:00:05;;;;;;;0.20;0.13;;;;;;;3.99;95.73;101550.38;5019163;28;20444;-52
2022/03/27 06:02:32;;;;;;;0.30;0.20;;;;;;;4.13;96.18;101554.16;5024247;28;21016;-51
2022/03/27 06:04:59;;;;;;;0.30;0.10;;;;;;;4.37;97.08;101548.41;5019937;28;20513;-51
2022/03/27 06:07:25;;;;;;;0.30;0.30;;;;;;;4.43;97.17;101550.28;5019219;28;20996;-53
2022/03/27 06:09:52;;;;;;;0.20;0.10;;;;;;;4.64;96.76;101555.88;5008640;28;20508;-52
2022/03/27 06:12:18;;;;;;;0.30;0.20;;;;;;;4.83;96.66;101558.81;5025474;28;20519;-52
2022/03/27 06:14:45;;;;;;;0.80;0.80;;;;;;;4.84;95.56;101553.56;5017563;28;20453;-52
2022/03/27 06:17:12;;;;;;;2.50;1.23;;;;;;;5.13;95.20;101559.25;5024971;28;21137;-53
2022/03/27 06:19:38;;;;;;;0.30;0.10;;;;;;;5.25;95.03;101562.06;5021167;28;20455;-52
2022/03/27 06:22:05;;;;;;;0.30;0.20;;;;;;;5.44;94.83;101557.91;5019919;28;20451;-53
2022/03/27 06:24:31;;;;;;;0.40;0.30;;;;;;;5.50;94.16;101565.91;5017397;28;20518;-50
2022/03/27 06:26:58;;;;;;;0.30;0.20;;;;;;;5.39;94.96;101564.00;5022795;28;20525;-50
2022/03/27 06:29:25;;;;;;;0.50;0.50;;;;;;;5.40;94.09;101569.28;5018912;28;20511;-50
2022/03/27 06:31:52;;;;;;;0.30;0.20;;;;;;;5.55;95.19;101571.22;5024592;28;20449;-49
2022/03/27 06:34:19;;;;;;;0.30;0.20;;;;;;;5.67;94.27;101570.50;5010916;28;20519;-50
2022/03/27 06:36:46;;;;;;;0.30;0.27;;;;;;;5.59;93.62;101567.75;5026623;28;20884;-50
2022/03/27 06:39:13;;;;;;;0.30;0.20;;;;;;;5.83;93.14;101570.69;5006576;28;20503;-50
2022/03/27 06:41:40;;;;;;;0.30;0.20;;;;;;;5.96;94.38;101569.13;5002956;28;20503;-49
2022/03/27 06:44:08;;;;;;;0.30;0.20;;;;;;;6.05;92.81;101570.97;4998432;28;20465;-51
2022/03/27 06:46:35;;;;;;;0.30;0.20;;;;;;;6.08;92.99;101571.88;5015372;28;20471;-50
2022/03/27 06:49:02;;;;;;;3.20;1.60;;;;;;;5.95;93.18;101567.34;5010688;28;20531;-49
2022/03/27 06:51:29;;;;;;;0.30;0.20;;;;;;;6.21;91.45;101565.88;5018970;28;20452;-50
2022/03/27 06:53:56;;;;;;;1.10;1.00;;;;;;;6.20;90.98;101574.66;5025737;28;20502;-50
2022/03/27 06:56:22;;;;;;;0.30;0.20;;;;;;;6.37;91.30;101566.88;5015605;28;20465;-50
2022/03/27 06:58:49;;;;;;;0.30;0.20;;;;;;;6.45;90.35;101573.13;5021850;28;20502;-50
2022/03/27 07:04:01;;;;;;;0.30;0.20;;;;;;;6.85;89.37;101568.16;5015580;28;20456;-50
2022/03/27 07:06:28;;;;;;;0.30;0.20;;;;;;;6.97;88.56;101575.28;5005072;28;20488;-50
2022/03/27 07:08:55;;;;;;;1.60;1.60;;;;;;;7.11;88.01;101573.63;5020781;28;20505;-50
2022/03/27 07:11:21;;;;;;;0.30;0.20;;;;;;;7.17;87.65;101573.66;5016900;28;20458;-50
2022/03/27 07:13:48;;;;;;;1.50;1.50;;;;;;;7.33;87.61;101570.22;5003887;28;20452;-50
2022/03/27 07:16:16;;;;;;;0.30;0.20;;;;;;;7.49;87.32;101567.66;5014876;28;20469;-50
2022/03/27 07:18:43;;;;;;;0.30;0.20;;;;;;;7.48;86.86;101571.19;5016084;28;20453;-51
2022/03/27 07:21:09;;;;;;;0.40;0.33;;;;;;;7.53;87.77;101567.66;5018465;28;20502;-50
2022/03/27 07:23:36;;;;;;;0.40;0.30;;;;;;;7.93;85.13;101563.41;5031815;28;20482;-51
2022/03/27 07:26:02;;;;;;;0.30;0.20;;;;;;;7.85;85.48;101564.28;5010890;28;20473;-50
2022/03/27 07:28:31;;;;;;;0.60;0.60;;;;;;;7.79;86.88;101575.72;5026903;28;20455;-50
2022/03/27 07:31:02;;;;;;;0.30;0.20;;;;;;;8.02;86.70;101562.56;5006775;28;20499;-51
2022/03/27 07:33:29;;;;;;;0.30;0.20;;;;;;;8.17;85.63;101573.19;5016880;28;20449;-51
2022/03/27 07:35:56;;;;;;;0.30;0.20;;;;;;;8.48;85.43;101562.66;5041464;22;20490;-48
2022/03/27 07:38:22;;;;;;;0.30;0.20;;;;;;;8.58;84.38;101565.31;5045071;28;20455;-48
2022/03/27 07:40:49;;;;;;;0.30;0.20;;;;;;;8.62;84.66;101571.47;5051906;28;20470;-48
2022/03/27 07:43:16;;;;;;;0.30;0.30;;;;;;;8.72;84.32;101569.72;5044952;28;20506;-48
2022/03/27 07:45:42;;;;;;;0.30;0.20;;;;;;;8.60;84.90;101574.13;5051438;28;20467;-49
2022/03/27 07:48:09;;;;;;;0.30;0.20;;;;;;;8.79;85.12;101574.16;5058266;28;20450;-49
2022/03/27 07:50:35;;;;;;;0.33;0.23;;;;;;;9.03;83.84;101573.22;5058250;28;20532;-49
2022/03/27 07:53:04;;;;;;;0.77;0.77;;;;;;;8.93;84.54;101571.50;5065344;28;20821;-49
2022/03/27 07:55:32;;;;;;;0.30;0.20;;;;;;;8.89;85.08;101568.81;5058013;28;20454;-48
2022/03/27 07:57:59;;;;;;;0.40;0.30;;;;;;;9.50;84.71;101575.78;5054947;28;20967;-49
2022/03/27 08:00:29;;;;;;;0.47;0.47;;;;;;;9.84;82.84;101573.84;5055040;28;20485;-49
2022/03/27 08:02:57;;;;;;;0.30;0.20;;;;;;;10.00;81.94;101578.19;5054843;28;20446;-49
2022/03/27 08:05:25;;;;;;;3.40;0.63;;;;;;;9.97;81.70;101572.88;5054308;28;20928;-49
2022/03/27 08:07:52;;;;;;;0.70;0.70;;;;;;;10.17;82.22;101566.59;5054687;28;20947;-49
2022/03/27 08:10:19;;;;;;;0.87;0.83;;;;;;;10.45;82.25;101564.66;5054530;28;20544;-49
2022/03/27 08:12:46;;;;;;;0.30;0.20;;;;;;;10.68;81.38;101570.66;5054857;28;20850;-49
2022/03/27 08:15:14;;;;;;;0.30;0.30;;;;;;;10.59;80.99;101568.97;5054875;28;20455;-49
2022/03/27 08:17:46;;;;;;;0.50;0.50;;;;;;;10.92;81.49;101572.22;5054624;28;20861;-49
2022/03/27 08:20:13;;;;;;;0.30;0.20;;;;;;;11.10;81.40;101572.06;5054871;28;20903;-49
2022/03/27 08:22:39;;;;;;;0.73;0.73;;;;;;;11.31;80.10;101562.97;5054547;28;20451;-49
2022/03/27 08:25:06;;;;;;;0.30;0.20;;;;;;;11.42;79.66;101560.19;5054124;28;20492;-49
2022/03/27 08:27:33;;;;;;;0.40;0.30;;;;;;;11.38;80.41;101561.13;5053903;28;20505;-50
2022/03/27 08:30:01;;;;;;;0.30;0.20;;;;;;;11.77;79.22;101563.28;5054470;28;20532;-49
2022/03/27 08:32:27;;;;;;;0.30;0.20;;;;;;;12.01;79.18;101556.78;5054327;28;20459;-49
2022/03/27 08:34:54;;;;;;;0.70;0.70;;;;;;;11.99;79.44;101555.03;5041450;28;20951;-49
2022/03/27 08:37:21;;;;;;;0.40;0.30;;;;;;;12.28;79.18;101555.50;5053991;28;20505;-49
2022/03/27 08:39:48;;;;;;;0.80;0.80;;;;;;;12.35;78.50;101557.19;5054387;28;20443;-49
2022/03/27 08:42:16;;;;;;;4.10;1.50;;;;;;;12.54;77.80;101559.53;5054421;28;20475;-49
2022/03/27 08:44:43;;;;;;;0.30;0.20;;;;;;;12.60;77.72;101557.63;5054518;28;20469;-49
2022/03/27 08:47:28;;;;;;;0.40;0.20;;;;;;;12.49;78.35;101556.97;5054118;28;20467;-49
2022/03/27 08:50:00;;;;;;;0.30;0.20;;;;;;;12.71;78.77;101555.69;5054532;28;20482;-49
2022/03/27 08:52:39;;;;;;;1.53;1.47;;;;;;;12.72;78.79;101561.88;5054131;28;20447;-49
2022/03/27 08:55:12;;;;;;;1.70;1.60;;;;;;;13.12;77.93;101548.72;5054284;28;20443;-49
2022/03/27 08:57:51;;;;;;;2.80;2.57;;;;;;;13.38;76.99;101556.25;5053843;28;20489;-49
2022/03/27 09:00:28;;;;;;;0.50;0.50;;;;;;;13.33;77.21;101543.00;5053709;28;20928;-49
2022/03/27 09:02:57;;;;;;;0.47;0.47;;;;;;;13.39;76.97;101551.81;5054105;28;20471;-50
2022/03/27 09:05:24;;;;;;;0.60;0.60;;;;;;;13.61;76.96;101554.03;5053652;28;20455;-49
2022/03/27 09:07:53;;;;;;;0.30;0.20;;;;;;;13.84;76.62;101545.53;5053790;28;21025;-49
2022/03/27 09:10:21;;;;;;;0.40;0.33;;;;;;;13.92;75.69;101546.22;5054060;28;20544;-49
2022/03/27 09:12:50;;;;;;;0.30;0.20;;;;;;;13.92;76.39;101551.56;5053591;28;20524;-49
2022/03/27 09:15:19;;;;;;;1.40;1.40;;;;;;;14.05;76.78;101548.63;5053665;28;20477;-49
2022/03/27 09:17:57;;;;;;;5.83;1.57;;;;;;;14.39;75.42;101549.59;5053458;28;20457;-49
2022/03/27 09:20:47;;;;;;;3.20;3.10;;;;;;;14.42;74.84;101543.28;5040490;28;20438;-50
2022/03/27 09:23:24;;;;;;;0.90;0.90;;;;;;;14.96;73.90;101545.53;5053600;28;20471;-50
2022/03/27 09:25:58;;;;;;;0.67;0.67;;;;;;;15.02;72.97;101537.31;5053503;28;20478;-49
2022/03/27 09:28:47;;;;;;;0.30;0.20;;;;;;;14.89;73.20;101546.59;5053267;28;20450;-50
2022/03/27 09:31:14;;;;;;;0.40;0.30;;;;;;;15.36;72.89;101535.47;5053401;28;20494;-50
2022/03/27 09:33:52;;;;;;;0.40;0.33;;;;;;;15.31;72.00;101539.19;5053825;28;20459;-49
2022/03/27 09:36:32;;;;;;;2.63;1.60;;;;;;;15.62;71.29;101532.09;5062214;28;20482;-49
2022/03/27 09:39:17;;;;;;;2.47;2.27;;;;;;;15.60;71.33;101527.66;5066834;28;20510;-49
2022/03/27 09:41:45;;;;;;;0.80;0.80;;;;;;;15.73;70.33;101530.88;5053942;28;20580;-50
2022/03/27 09:44:17;;;;;;;0.30;0.20;;;;;;;15.41;72.25;101528.19;5058889;28;20565;-49
2022/03/27 09:47:02;;;;;;;1.63;1.53;;;;;;;15.83;69.32;101527.88;5058394;28;20994;-49
2022/03/27 09:49:34;;;;;;;1.20;1.13;;;;;;;16.16;66.68;101522.38;5059928;28;20451;-50
2022/03/27 09:52:13;;;;;;;2.93;2.83;;;;;;;16.13;64.97;101522.47;5058625;28;20537;-49
2022/03/27 09:54:56;;;;;;;0.40;0.30;;;;;;;16.13;64.39;101517.09;5054002;28;20458;-49
2022/03/27 09:57:27;;;;;;;0.30;0.30;;;;;;;16.35;63.21;101515.50;5056245;28;20532;-49
2022/03/27 09:59:56;;;;;;;2.00;1.30;;;;;;;16.55;62.72;101514.81;5061263;28;20446;-49
2022/03/27 10:02:30;;;;;;;0.57;0.57;;;;;;;16.54;62.31;101511.25;5057364;28;21012;-50
2022/03/27 10:04:59;;;;;;;0.30;0.20;;;;;;;16.91;62.08;101509.16;5063610;28;20457;-50
2022/03/27 10:07:27;;;;;;;0.37;0.30;;;;;;;16.94;61.95;101511.72;5063645;28;20556;-50
2022/03/27 10:09:55;;;;;;;0.67;0.67;;;;;;;17.00;61.91;101512.41;5056506;28;20478;-49
2022/03/27 10:12:27;;;;;;;0.30;0.20;;;;;;;17.02;61.55;101509.66;5053014;28;20450;-50
2022/03/27 10:14:57;;;;;;;0.60;0.50;;;;;;;16.76;60.92;101505.22;5052746;28;20465;-49
2022/03/27 10:17:27;;;;;;;1.13;0.73;;;;;;;17.26;59.56;101500.69;5062279;28;20529;-50
2022/03/27 10:19:59;;;;;;;0.80;0.80;;;;;;;17.35;58.85;101502.19;5058008;28;20478;-50
2022/03/27 10:22:28;;;;;;;2.20;1.47;;;;;;;17.20;59.24;101497.38;5040479;28;20451;-52
2022/03/27 10:24:57;;;;;;;0.83;0.83;;;;;;;17.10;59.48;101494.13;5056670;28;20454;-49
2022/03/27 10:27:25;;;;;;;0.93;0.73;;;;;;;16.98;57.42;101494.56;5059522;28;20465;-49
2022/03/27 10:29:54;;;;;;;0.40;0.40;;;;;;;17.27;57.07;101493.50;5053970;28;20486;-50
2022/03/27 10:32:21;;;;;;;0.73;0.73;;;;;;;17.61;56.57;101488.63;5059687;28;21005;-49
2022/03/27 10:35:13;;;;;;;2.00;2.00;;;;;;;17.40;57.46;101490.31;5060643;28;20831;-49
2022/03/27 10:37:58;;;;;;;2.60;1.73;;;;;;;17.38;57.09;101489.50;5054983;28;20486;-50
2022/03/27 10:40:34;;;;;;;1.77;1.40;;;;;;;17.14;57.95;101477.88;5047566;28;20443;-49
2022/03/27 10:43:31;;;;;;;2.73;1.27;;;;;;;17.25;57.97;101474.75;5053863;28;20451;-50
2022/03/27 10:46:21;;;;;;;1.23;1.23;;;;;;;17.54;56.59;101476.34;5055588;28;20979;-49
2022/03/27 10:48:49;;;;;;;3.63;1.77;;;;;;;17.59;57.00;101466.31;5056315;28;20955;-50
2022/03/27 10:51:25;;;;;;;0.70;0.70;;;;;;;17.82;55.74;101461.84;5058313;28;20525;-50
2022/03/27 10:54:04;;;;;;;0.63;0.63;;;;;;;17.98;55.65;101454.94;5051774;28;20458;-50
2022/03/27 10:56:35;;;;;;;1.73;1.63;;;;;;;17.97;55.09;101456.75;5051586;28;20474;-50
2022/03/27 10:59:09;;;;;;;0.47;0.43;;;;;;;17.87;53.76;101449.97;5062577;28;20455;-50
2022/03/27 11:01:43;;;;;;;1.73;1.73;;;;;;;18.01;52.49;101450.31;5058349;28;20449;-49
2022/03/27 11:04:17;;;;;;;2.77;1.60;;;;;;;18.25;52.38;101447.53;5049586;28;20449;-49
2022/03/27 11:06:46;;;;;;;0.40;0.30;;;;;;;18.28;52.82;101444.72;5050494;28;21048;-49
2022/03/27 11:09:37;;;;;;;0.53;0.53;;;;;;;18.28;53.10;101436.66;5060268;28;20867;-49
2022/03/27 11:12:22;;;;;;;0.60;0.60;;;;;;;18.09;52.14;101438.31;5053280;28;20514;-50
2022/03/27 11:14:52;;;;;;;1.10;1.10;;;;;;;17.96;52.99;101435.28;5054996;28;20451;-49
2022/03/27 11:17:34;;;;;;;0.30;0.20;;;;;;;17.97;52.62;101437.91;5051832;28;20554;-49
2022/03/27 11:20:04;;;;;;;0.40;0.30;;;;;;;17.99;51.39;101430.66;5051790;28;20451;-49
2022/03/27 11:22:51;;;;;;;0.87;0.87;;;;;;;18.35;50.13;101422.84;5051620;28;20482;-50
2022/03/27 11:25:27;;;;;;;0.40;0.30;;;;;;;18.16;49.62;101427.25;5038583;28;20517;-50
2022/03/27 11:27:55;;;;;;;0.40;0.20;;;;;;;18.33;45.81;101418.47;5051576;28;20449;-49
2022/03/27 11:30:21;;;;;;;0.40;0.30;;;;;;;18.37;48.13;101414.72;5051724;28;20490;-49
2022/03/27 11:33:16;;;;;;;0.40;0.30;;;;;;;18.28;47.01;101410.59;5051383;28;20451;-49
2022/03/27 11:36:05;;;;;;;0.40;0.30;;;;;;;18.53;47.41;101421.19;5051166;28;20482;-49
2022/03/27 11:38:58;;;;;;;0.40;0.30;;;;;;;18.31;46.67;101417.66;5040958;28;20450;-49
2022/03/27 11:41:42;;;;;;;1.00;1.00;;;;;;;18.41;47.92;101413.66;5051667;28;20869;-49
2022/03/27 11:47:35;;;;;;;0.67;0.67;;;;;;;18.52;46.55;101405.97;5051236;28;20500;-49
2022/03/27 11:50:03;;;;;;;0.87;0.87;;;;;;;18.65;46.94;101411.75;5051212;28;20447;-49
2022/03/27 11:52:30;;;;;;;1.30;1.30;;;;;;;18.70;46.53;101406.13;5051239;28;20450;-49